Time;durP1;ratioP1;P1;durP2;ratioP2;P2;SDS_P1;SDS_P2;PMS_P1;PMS_P2;Temp;Humidity;BMP_temperature;BMP_pressure;BME280_temperature;BME280_humidity;BME280_pressure;Samples;Min_cycle;Max_cycle;Signal;HPM_P1;HPM_P2
2021/07/22 00:00:36;;;;;;;21.15;16.63;;;18.80;99.90;;;;;;4977610;28;20062;-85
2021/07/22 00:06:45;;;;;;;21.08;15.75;;;18.80;99.90;;;;;;4990505;28;20045;-84
2021/07/22 00:09:12;;;;;;;22.08;16.35;;;18.80;99.90;;;;;;4984527;28;20054;-85
2021/07/22 00:11:43;;;;;;;25.25;16.52;;;18.70;99.90;;;;;;4989401;28;20074;-85
2021/07/22 00:14:10;;;;;;;25.88;16.55;;;18.70;99.90;;;;;;4986643;23;20043;-79
2021/07/22 00:16:37;;;;;;;22.75;17.13;;;18.70;99.90;;;;;;4972861;28;20047;-79
2021/07/22 00:19:04;;;;;;;21.30;15.93;;;18.60;99.90;;;;;;4976957;28;20054;-82
2021/07/22 00:21:31;;;;;;;23.67;17.33;;;18.60;99.90;;;;;;4982227;28;20122;-80
2021/07/22 00:24:00;;;;;;;23.05;17.92;;;18.60;99.90;;;;;;4981531;28;20057;-80
2021/07/22 00:26:26;;;;;;;21.35;17.63;;;18.60;99.90;;;;;;4981437;28;20058;-79
2021/07/22 00:28:53;;;;;;;24.65;17.85;;;18.60;99.90;;;;;;4979486;28;20062;-80
2021/07/22 00:31:20;;;;;;;23.30;16.92;;;18.60;99.90;;;;;;4979007;28;20057;-79
2021/07/22 00:33:47;;;;;;;21.60;17.42;;;18.50;99.90;;;;;;4979793;28;20137;-80
2021/07/22 00:36:14;;;;;;;20.95;16.92;;;18.50;99.90;;;;;;4979773;28;20114;-79
2021/07/22 00:38:41;;;;;;;21.17;17.25;;;18.40;99.90;;;;;;4981396;28;20336;-78
2021/07/22 00:41:11;;;;;;;21.50;16.58;;;18.40;99.90;;;;;;4980090;28;20057;-78
2021/07/22 00:43:39;;;;;;;21.13;17.45;;;18.40;99.90;;;;;;4980104;28;20089;-80
2021/07/22 00:46:06;;;;;;;20.45;16.80;;;18.30;99.90;;;;;;4981037;28;20196;-81
2021/07/22 00:48:32;;;;;;;21.58;18.05;;;18.30;99.90;;;;;;4980532;28;20062;-78
2021/07/22 00:50:59;;;;;;;23.05;17.15;;;18.20;99.90;;;;;;4973358;28;20046;-81
2021/07/22 00:53:26;;;;;;;18.10;15.48;;;18.20;99.90;;;;;;4974585;28;20403;-76
2021/07/22 00:55:53;;;;;;;24.00;17.60;;;18.20;99.90;;;;;;4974280;28;20055;-79
2021/07/22 00:58:21;;;;;;;20.52;16.15;;;18.20;99.90;;;;;;4974035;28;20054;-81
2021/07/22 01:00:48;;;;;;;20.85;16.45;;;18.10;99.90;;;;;;4973323;28;20074;-80
2021/07/22 01:03:15;;;;;;;21.75;16.77;;;18.00;99.90;;;;;;4973327;28;20057;-78
2021/07/22 01:05:42;;;;;;;22.35;17.25;;;18.00;99.90;;;;;;4973035;28;20142;-75
2021/07/22 01:08:08;;;;;;;23.08;17.27;;;18.00;99.90;;;;;;4972810;28;20138;-80
2021/07/22 01:10:35;;;;;;;22.95;17.55;;;18.00;99.90;;;;;;4973758;28;20050;-79
2021/07/22 01:13:02;;;;;;;21.60;17.58;;;17.90;99.90;;;;;;4972558;28;20437;-78
2021/07/22 01:15:31;;;;;;;22.08;18.08;;;17.90;99.90;;;;;;4972951;28;20058;-79
2021/07/22 01:17:58;;;;;;;21.85;17.50;;;17.90;99.90;;;;;;4976864;28;20130;-76
2021/07/22 01:20:27;;;;;;;22.23;17.73;;;17.80;99.90;;;;;;4976583;28;20047;-79
2021/07/22 01:22:56;;;;;;;19.58;16.27;;;17.80;99.90;;;;;;4973694;28;20073;-77
2021/07/22 01:25:23;;;;;;;21.63;17.08;;;17.80;99.90;;;;;;4973257;28;20181;-78
2021/07/22 01:27:52;;;;;;;24.02;17.50;;;17.80;99.90;;;;;;4973170;28;20051;-78
2021/07/22 01:30:19;;;;;;;24.33;17.67;;;17.70;99.90;;;;;;4972860;28;20502;-77
2021/07/22 01:32:47;;;;;;;21.98;17.40;;;17.60;99.90;;;;;;4972294;28;20061;-78
2021/07/22 01:35:15;;;;;;;24.15;17.83;;;17.60;99.90;;;;;;4972463;28;20263;-80
2021/07/22 01:37:44;;;;;;;23.15;17.48;;;17.60;99.90;;;;;;4972691;28;20568;-81
2021/07/22 01:40:12;;;;;;;22.73;17.10;;;17.60;99.90;;;;;;4972579;28;20057;-79
2021/07/22 01:42:39;;;;;;;22.95;17.60;;;17.60;99.90;;;;;;4972662;28;20503;-78
2021/07/22 01:45:08;;;;;;;22.10;16.95;;;17.50;99.90;;;;;;4972377;28;20093;-79
2021/07/22 01:47:36;;;;;;;21.98;16.90;;;17.50;99.90;;;;;;4975870;28;20129;-77
2021/07/22 01:50:03;;;;;;;22.23;17.63;;;17.40;99.90;;;;;;4975689;28;20475;-78
2021/07/22 01:52:30;;;;;;;23.95;18.17;;;17.40;99.90;;;;;;4976103;28;20082;-77
2021/07/22 01:54:58;;;;;;;22.25;17.33;;;17.40;99.90;;;;;;4977524;28;20525;-79
2021/07/22 01:57:25;;;;;;;20.30;16.35;;;17.40;99.90;;;;;;4975955;28;20080;-79
2021/07/22 01:59:52;;;;;;;25.48;18.25;;;17.30;99.90;;;;;;4975865;28;20074;-76
2021/07/22 02:02:19;;;;;;;21.15;16.83;;;17.30;99.90;;;;;;4975583;28;20046;-79
2021/07/22 02:04:46;;;;;;;22.48;18.13;;;17.20;99.90;;;;;;4975427;28;20050;-77
2021/07/22 02:07:13;;;;;;;24.63;17.23;;;17.20;99.90;;;;;;4975630;28;20419;-80
2021/07/22 02:09:40;;;;;;;24.48;17.10;;;17.20;99.90;;;;;;4975135;28;20046;-79
2021/07/22 02:12:09;;;;;;;26.40;17.42;;;17.10;99.90;;;;;;4975023;28;20105;-77
2021/07/22 02:14:36;;;;;;;23.73;17.00;;;17.10;99.90;;;;;;4975096;28;20151;-78
2021/07/22 02:17:03;;;;;;;22.50;17.65;;;17.10;99.90;;;;;;4975345;28;20141;-78
2021/07/22 02:19:30;;;;;;;22.55;17.00;;;17.10;99.90;;;;;;4975333;28;20126;-78
2021/07/22 02:21:57;;;;;;;20.77;16.23;;;17.10;99.90;;;;;;4975444;28;20057;-79
2021/07/22 02:24:24;;;;;;;23.02;17.50;;;17.00;99.90;;;;;;4975057;28;20057;-78
2021/07/22 02:26:50;;;;;;;22.25;16.92;;;17.00;99.90;;;;;;4975178;28;20050;-78
2021/07/22 02:29:19;;;;;;;27.17;17.42;;;17.00;99.90;;;;;;4974867;28;20421;-78
2021/07/22 02:31:45;;;;;;;21.17;16.77;;;16.90;99.90;;;;;;4975261;28;20054;-79
2021/07/22 02:34:12;;;;;;;24.58;17.65;;;16.90;99.90;;;;;;4975306;28;20137;-81
2021/07/22 02:36:39;;;;;;;24.90;18.08;;;16.80;99.90;;;;;;4977270;28;20133;-79
2021/07/22 02:39:06;;;;;;;21.25;17.38;;;16.80;99.90;;;;;;4977688;28;20137;-76
2021/07/22 02:41:33;;;;;;;24.35;16.92;;;16.90;99.90;;;;;;4975125;28;20155;-78
2021/07/22 02:44:00;;;;;;;24.92;19.10;;;16.90;99.90;;;;;;4974965;28;20486;-79
2021/07/22 02:46:28;;;;;;;22.70;17.77;;;16.90;99.90;;;;;;4974743;28;20133;-79
2021/07/22 02:49:00;;;;;;;23.70;17.70;;;16.90;99.90;;;;;;4974583;28;20050;-79
2021/07/22 02:51:27;;;;;;;25.95;17.08;;;16.90;99.90;;;;;;4974466;28;20047;-74
2021/07/22 02:53:53;;;;;;;23.30;18.00;;;16.90;99.90;;;;;;4974568;28;20134;-79
2021/07/22 02:56:20;;;;;;;21.65;17.80;;;16.80;99.90;;;;;;4974877;28;20137;-79
2021/07/22 02:58:47;;;;;;;20.50;16.83;;;16.80;99.90;;;;;;4974932;28;20116;-80
2021/07/22 03:01:14;;;;;;;22.42;17.25;;;16.80;99.90;;;;;;4974763;28;20085;-78
2021/07/22 03:03:42;;;;;;;21.38;17.40;;;16.70;99.90;;;;;;4975086;28;20153;-78
2021/07/22 03:06:13;;;;;;;23.58;17.33;;;16.70;99.90;;;;;;4975093;28;20089;-79
2021/07/22 03:08:40;;;;;;;23.27;17.38;;;16.70;99.90;;;;;;4975382;28;20086;-78
2021/07/22 03:11:09;;;;;;;23.58;17.83;;;16.70;99.90;;;;;;4976138;28;20134;-78
2021/07/22 03:13:36;;;;;;;23.98;16.85;;;16.70;99.90;;;;;;4974044;28;20062;-78
2021/07/22 03:16:03;;;;;;;24.15;17.00;;;16.70;99.90;;;;;;4975108;28;20073;-79
2021/07/22 03:18:30;;;;;;;21.08;16.52;;;16.70;99.90;;;;;;4975103;28;20047;-79
2021/07/22 03:21:00;;;;;;;21.90;16.15;;;16.60;99.90;;;;;;4975056;28;20055;-80
2021/07/22 03:23:27;;;;;;;22.85;16.63;;;16.60;99.90;;;;;;4974154;28;20507;-79
2021/07/22 03:25:53;;;;;;;23.15;17.58;;;16.50;99.90;;;;;;4974020;28;20522;-78
2021/07/22 03:28:20;;;;;;;21.13;17.05;;;16.40;99.90;;;;;;4974145;28;20078;-78
2021/07/22 03:30:47;;;;;;;22.75;16.85;;;16.40;99.90;;;;;;4974678;28;20051;-78
2021/07/22 03:33:14;;;;;;;22.30;16.60;;;16.40;99.90;;;;;;4974070;28;20423;-78
2021/07/22 03:35:42;;;;;;;23.23;17.25;;;16.40;99.90;;;;;;4974978;28;20153;-77
2021/07/22 03:38:10;;;;;;;22.75;17.00;;;16.40;99.90;;;;;;4977095;28;20053;-80
2021/07/22 03:40:37;;;;;;;22.38;16.95;;;16.40;99.90;;;;;;4981504;28;20059;-80
2021/07/22 03:43:04;;;;;;;20.85;16.58;;;16.40;99.90;;;;;;4978185;28;20527;-79
2021/07/22 03:45:31;;;;;;;20.73;16.55;;;16.50;99.90;;;;;;4976773;28;20460;-79
2021/07/22 03:48:00;;;;;;;23.08;17.13;;;16.50;99.90;;;;;;4975312;28;20057;-79
2021/07/22 03:50:27;;;;;;;25.70;17.75;;;16.50;99.90;;;;;;4977204;28;20054;-79
2021/07/22 03:52:55;;;;;;;19.40;16.48;;;16.50;99.90;;;;;;4978594;28;20046;-79
2021/07/22 03:55:25;;;;;;;23.95;16.90;;;16.50;99.90;;;;;;4979753;28;20101;-79
2021/07/22 03:57:52;;;;;;;25.17;16.23;;;16.50;99.90;;;;;;4981407;28;20079;-80
2021/07/22 04:00:19;;;;;;;22.90;16.88;;;16.50;99.90;;;;;;4984273;28;20047;-80
2021/07/22 04:02:47;;;;;;;21.67;17.27;;;16.50;99.90;;;;;;4983067;28;20146;-80
2021/07/22 04:05:14;;;;;;;27.80;18.27;;;16.50;99.90;;;;;;4984513;28;20061;-80
2021/07/22 04:07:41;;;;;;;25.02;17.17;;;16.40;99.90;;;;;;4983181;28;20070;-82
2021/07/22 04:10:09;;;;;;;24.23;17.65;;;16.40;99.90;;;;;;4981318;28;20051;-80
2021/07/22 04:12:37;;;;;;;23.80;17.60;;;16.40;99.90;;;;;;4981279;28;20089;-80
2021/07/22 04:15:04;;;;;;;25.05;17.48;;;16.40;99.90;;;;;;4980024;28;20050;-80
2021/07/22 04:17:31;;;;;;;23.02;17.08;;;16.40;99.90;;;;;;4978828;28;20125;-79
2021/07/22 04:19:58;;;;;;;19.85;15.68;;;16.60;99.90;;;;;;4980691;28;20474;-80
2021/07/22 04:22:25;;;;;;;24.52;18.40;;;16.90;99.90;;;;;;4981176;28;20412;-79
2021/07/22 04:24:52;;;;;;;23.10;16.02;;;17.10;99.90;;;;;;4982937;28;20089;-81
2021/07/22 04:27:21;;;;;;;23.45;16.25;;;17.30;99.90;;;;;;4983529;28;20460;-80
2021/07/22 04:29:49;;;;;;;21.23;17.05;;;17.40;99.90;;;;;;4974567;28;20050;-80
2021/07/22 04:32:16;;;;;;;23.75;17.25;;;17.50;99.90;;;;;;4976762;28;20054;-79
2021/07/22 04:34:43;;;;;;;21.40;16.80;;;17.50;99.90;;;;;;4977473;28;20131;-79
2021/07/22 04:37:10;;;;;;;26.60;17.73;;;17.60;99.90;;;;;;4978566;28;20465;-80
2021/07/22 04:39:37;;;;;;;22.40;16.08;;;17.80;99.90;;;;;;4973700;28;20055;-79
2021/07/22 04:42:04;;;;;;;19.67;15.48;;;17.80;99.90;;;;;;4976605;28;20057;-80
2021/07/22 04:44:31;;;;;;;21.60;15.93;;;17.90;99.90;;;;;;4976141;28;20051;-80
2021/07/22 04:46:59;;;;;;;18.20;15.27;;;17.90;99.90;;;;;;4975016;28;20047;-76
2021/07/22 04:49:26;;;;;;;20.95;16.17;;;17.90;99.90;;;;;;4973407;28;20055;-79
2021/07/22 04:51:53;;;;;;;22.58;16.52;;;18.00;99.90;;;;;;4972351;28;20475;-79
2021/07/22 04:54:20;;;;;;;22.00;16.00;;;18.00;99.90;;;;;;4972593;28;20395;-79
2021/07/22 04:56:47;;;;;;;21.35;16.42;;;18.00;99.90;;;;;;4972643;28;20642;-78
2021/07/22 04:59:14;;;;;;;22.55;15.98;;;18.00;99.90;;;;;;4972742;28;20043;-79
2021/07/22 05:01:41;;;;;;;20.35;15.40;;;18.00;99.90;;;;;;4973844;28;20137;-79
2021/07/22 05:04:15;;;;;;;24.83;16.90;;;18.10;99.90;;;;;;4976378;28;20153;-80
2021/07/22 05:06:42;;;;;;;22.42;15.90;;;18.10;99.90;;;;;;4974560;28;20055;-79
2021/07/22 05:09:09;;;;;;;25.05;16.98;;;18.20;99.90;;;;;;4973439;28;20085;-79
2021/07/22 05:11:35;;;;;;;27.08;17.40;;;18.40;99.90;;;;;;4974627;28;20157;-79
2021/07/22 05:14:02;;;;;;;25.40;17.52;;;18.50;99.90;;;;;;4974798;28;20116;-79
2021/07/22 05:16:29;;;;;;;26.63;17.67;;;18.70;99.90;;;;;;4975857;28;20055;-78
2021/07/22 05:18:56;;;;;;;27.55;18.50;;;18.80;99.90;;;;;;4974279;28;20476;-82
2021/07/22 05:21:24;;;;;;;28.00;18.45;;;19.00;99.90;;;;;;4980840;28;20082;-79
2021/07/22 05:23:51;;;;;;;29.73;18.60;;;19.10;99.90;;;;;;4980177;28;20423;-80
2021/07/22 05:26:18;;;;;;;25.38;17.92;;;19.30;99.90;;;;;;4981519;28;20677;-79
2021/07/22 05:28:45;;;;;;;26.98;19.05;;;19.50;99.90;;;;;;4980156;28;20076;-80
2021/07/22 05:31:12;;;;;;;23.05;17.80;;;19.90;99.90;;;;;;4980239;28;20058;-80
2021/07/22 05:33:41;;;;;;;24.65;18.20;;;20.50;99.90;;;;;;4978318;28;20121;-80
2021/07/22 05:36:10;;;;;;;27.02;19.50;;;20.80;99.90;;;;;;4977467;28;20491;-79
2021/07/22 05:38:39;;;;;;;26.50;19.90;;;21.30;99.90;;;;;;4977391;28;20547;-80
2021/07/22 05:41:07;;;;;;;29.75;20.25;;;21.90;99.90;;;;;;4978478;28;20106;-80
2021/07/22 05:43:34;;;;;;;27.40;19.45;;;22.60;99.90;;;;;;4978148;28;20054;-80
2021/07/22 05:46:01;;;;;;;31.58;20.25;;;23.00;99.90;;;;;;4980221;28;20142;-81
2021/07/22 05:48:28;;;;;;;25.92;20.40;;;23.10;99.90;;;;;;4978653;28;20137;-80
2021/07/22 05:50:59;;;;;;;29.77;20.30;;;23.00;99.90;;;;;;4976957;28;20141;-79
2021/07/22 05:53:26;;;;;;;27.88;20.30;;;22.90;99.90;;;;;;4976525;28;20415;-80
2021/07/22 05:55:57;;;;;;;28.27;20.08;;;22.90;99.90;;;;;;4976036;28;20142;-79
2021/07/22 05:58:24;;;;;;;30.20;20.35;;;23.00;99.90;;;;;;4978530;28;20047;-79
2021/07/22 06:00:50;;;;;;;26.92;19.75;;;23.40;99.90;;;;;;4980677;28;20181;-80
2021/07/22 06:03:17;;;;;;;31.80;19.73;;;23.60;99.90;;;;;;4977068;28;20495;-79
2021/07/22 06:05:44;;;;;;;33.60;20.85;;;23.80;99.90;;;;;;4975444;28;20054;-81
2021/07/22 06:08:11;;;;;;;27.60;20.33;;;24.00;99.90;;;;;;4975342;28;20472;-79
2021/07/22 06:10:38;;;;;;;29.17;20.33;;;23.90;99.90;;;;;;4975465;28;20514;-79
2021/07/22 06:13:09;;;;;;;28.80;20.77;;;23.80;99.90;;;;;;4990520;23;20043;-86
2021/07/22 06:15:36;;;;;;;30.45;21.58;;;23.80;99.90;;;;;;4978140;28;20069;-84
2021/07/22 06:18:05;;;;;;;34.20;21.77;;;23.70;99.90;;;;;;4985729;28;20487;-85
2021/07/22 06:20:32;;;;;;;30.63;22.38;;;23.30;99.90;;;;;;4984331;28;20158;-84
2021/07/22 06:22:59;;;;;;;34.10;22.05;;;23.20;99.90;;;;;;4985070;28;20073;-85
2021/07/22 06:25:26;;;;;;;35.90;24.70;;;22.90;99.90;;;;;;4984568;28;20119;-84
2021/07/22 06:27:53;;;;;;;33.55;22.80;;;22.70;99.90;;;;;;4983468;28;20057;-85
2021/07/22 06:30:21;;;;;;;34.92;24.48;;;22.50;99.90;;;;;;4983921;28;20129;-84
2021/07/22 06:32:48;;;;;;;34.08;22.25;;;22.30;99.90;;;;;;4984210;28;20054;-87
2021/07/22 06:35:15;;;;;;;34.85;24.55;;;22.20;99.90;;;;;;4984719;28;20546;-85
2021/07/22 06:37:46;;;;;;;37.45;24.77;;;22.10;99.90;;;;;;4984625;28;20086;-86
2021/07/22 06:40:14;;;;;;;36.25;23.98;;;22.00;99.90;;;;;;4983805;28;20102;-86
2021/07/22 06:42:40;;;;;;;31.63;22.08;;;21.90;99.90;;;;;;4984447;28;20106;-87
2021/07/22 06:45:08;;;;;;;30.38;22.42;;;21.90;99.90;;;;;;4984598;28;20082;-86
2021/07/22 06:47:39;;;;;;;30.77;21.83;;;22.00;99.90;;;;;;4987141;28;20089;-87
2021/07/22 06:50:08;;;;;;;31.25;21.42;;;22.20;99.90;;;;;;4984926;28;20043;-84
2021/07/22 06:52:36;;;;;;;33.65;21.92;;;22.20;99.90;;;;;;4984326;28;20058;-86
2021/07/22 06:55:04;;;;;;;30.25;21.75;;;22.30;99.90;;;;;;4983590;28;20392;-85
2021/07/22 06:57:31;;;;;;;30.85;22.45;;;22.40;99.90;;;;;;4982941;28;20070;-85
2021/07/22 06:59:58;;;;;;;26.90;19.38;;;22.60;99.90;;;;;;4983509;28;20050;-85
2021/07/22 07:02:24;;;;;;;30.45;21.98;;;22.80;99.90;;;;;;4983049;28;20133;-86
2021/07/22 07:04:53;;;;;;;28.40;21.25;;;23.10;99.90;;;;;;4982874;28;20101;-81
2021/07/22 07:07:21;;;;;;;27.42;20.50;;;23.40;99.90;;;;;;4982406;28;20265;-82
2021/07/22 07:09:48;;;;;;;32.65;20.23;;;23.50;99.90;;;;;;4982155;28;20126;-83
2021/07/22 07:12:15;;;;;;;32.15;22.08;;;23.60;99.90;;;;;;4982197;28;20060;-83
2021/07/22 07:14:42;;;;;;;26.30;21.48;;;23.70;99.90;;;;;;4982013;28;20117;-84
2021/07/22 07:17:11;;;;;;;27.58;21.50;;;23.70;99.90;;;;;;4981714;28;20110;-82
2021/07/22 07:19:37;;;;;;;31.27;20.67;;;23.80;99.90;;;;;;4981797;28;20082;-81
2021/07/22 07:22:06;;;;;;;28.63;20.83;;;23.80;99.90;;;;;;4982620;28;20110;-83
2021/07/22 07:24:34;;;;;;;27.77;20.75;;;23.90;99.90;;;;;;4981919;28;20141;-85
2021/07/22 07:27:01;;;;;;;24.40;19.60;;;23.70;99.90;;;;;;4982628;28;20055;-82
2021/07/22 07:29:28;;;;;;;26.77;20.52;;;23.80;99.90;;;;;;4989379;28;20069;-83
2021/07/22 07:31:59;;;;;;;27.77;19.77;;;23.90;99.90;;;;;;4983629;28;20110;-83
2021/07/22 07:34:26;;;;;;;26.98;19.42;;;24.20;99.90;;;;;;4971921;28;20491;-82
2021/07/22 07:36:53;;;;;;;24.42;19.58;;;24.40;99.90;;;;;;4968038;28;20059;-85
2021/07/22 07:39:22;;;;;;;30.50;20.52;;;24.60;99.90;;;;;;4964094;28;20141;-85
2021/07/22 07:41:49;;;;;;;31.00;20.08;;;24.90;99.90;;;;;;4962782;28;20225;-84
2021/07/22 07:44:16;;;;;;;28.90;19.30;;;25.70;99.90;;;;;;4962282;28;20110;-85
2021/07/22 07:46:43;;;;;;;23.95;19.63;;;26.30;99.90;;;;;;4970042;28;20086;-86
2021/07/22 07:49:12;;;;;;;25.88;18.45;;;26.70;99.90;;;;;;4985244;28;20137;-85
2021/07/22 07:51:42;;;;;;;29.05;17.77;;;27.20;99.90;;;;;;4986129;28;20045;-84
2021/07/22 07:54:09;;;;;;;25.27;18.05;;;27.60;99.90;;;;;;4981413;28;20483;-84
2021/07/22 07:56:49;;;;;;;27.13;18.17;;;27.70;99.90;;;;;;4981605;28;20089;-85
2021/07/22 07:59:19;;;;;;;20.05;16.35;;;27.90;99.90;;;;;;4982455;28;20047;-82
2021/07/22 08:01:49;;;;;;;21.42;17.38;;;28.10;99.90;;;;;;4980441;28;20066;-82
2021/07/22 08:04:16;;;;;;;23.10;17.38;;;28.20;99.90;;;;;;4961829;28;20113;-85
2021/07/22 08:06:43;;;;;;;22.83;18.05;;;28.60;99.90;;;;;;4975229;28;20055;-84
2021/07/22 08:09:09;;;;;;;28.50;18.92;;;28.50;99.90;;;;;;4988884;28;20066;-84
2021/07/22 08:11:36;;;;;;;25.17;16.95;;;28.90;99.90;;;;;;4988900;28;20069;-85
2021/07/22 08:14:05;;;;;;;24.40;17.63;;;29.30;99.90;;;;;;4983648;28;20082;-87
2021/07/22 08:16:31;;;;;;;24.52;17.38;;;29.40;99.90;;;;;;4980414;28;20116;-87
2021/07/22 08:18:58;;;;;;;26.23;18.10;;;29.60;99.90;;;;;;4981075;28;20615;-85
2021/07/22 08:21:25;;;;;;;24.20;17.77;;;29.70;99.90;;;;;;4981941;28;20081;-85
2021/07/22 08:23:53;;;;;;;26.33;17.98;;;29.50;99.90;;;;;;4980382;28;20130;-83
2021/07/22 08:26:20;;;;;;;20.90;17.25;;;29.40;99.90;;;;;;4977328;28;20526;-85
2021/07/22 08:28:47;;;;;;;23.92;17.17;;;29.30;99.90;;;;;;4979789;28;20101;-85
2021/07/22 08:31:16;;;;;;;24.35;17.77;;;29.10;99.90;;;;;;4981135;28;20098;-85
2021/07/22 08:33:43;;;;;;;23.13;18.08;;;29.30;99.90;;;;;;4980607;28;20082;-85
2021/07/22 08:36:10;;;;;;;24.08;19.13;;;28.80;99.90;;;;;;4980728;28;20106;-85
2021/07/22 08:38:37;;;;;;;31.63;19.70;;;28.90;99.90;;;;;;4980393;28;20130;-85
2021/07/22 08:41:04;;;;;;;22.67;17.05;;;28.70;99.90;;;;;;4980114;28;20162;-85
2021/07/22 08:43:34;;;;;;;21.80;17.10;;;28.60;99.90;;;;;;4979391;28;20047;-85
2021/07/22 08:46:01;;;;;;;25.08;18.10;;;28.80;99.90;;;;;;4980783;28;20054;-84
2021/07/22 08:48:30;;;;;;;28.30;19.08;;;29.20;99.90;;;;;;4980738;28;20078;-84
2021/07/22 08:50:57;;;;;;;26.42;17.80;;;28.90;99.90;;;;;;4980215;28;20053;-84
2021/07/22 08:53:25;;;;;;;25.92;18.15;;;29.10;99.90;;;;;;4981168;28;20188;-84
2021/07/22 08:55:53;;;;;;;23.50;18.00;;;29.40;99.90;;;;;;4983383;28;20058;-84
2021/07/22 08:58:20;;;;;;;24.02;18.30;;;29.20;99.90;;;;;;4984705;28;20077;-85
2021/07/22 09:00:48;;;;;;;27.10;18.13;;;29.30;99.90;;;;;;4983302;28;20136;-84
2021/07/22 09:03:14;;;;;;;20.45;15.85;;;29.40;99.90;;;;;;4982582;28;20114;-85
2021/07/22 09:05:43;;;;;;;22.48;16.30;;;29.80;99.90;;;;;;4982252;28;20447;-85
2021/07/22 09:08:10;;;;;;;18.52;14.95;;;29.90;99.90;;;;;;4983051;28;20046;-85
2021/07/22 09:10:37;;;;;;;21.75;15.60;;;30.20;99.90;;;;;;4982831;28;20130;-85
2021/07/22 09:13:04;;;;;;;20.27;16.23;;;30.30;99.90;;;;;;4982746;28;20125;-85
2021/07/22 09:15:33;;;;;;;21.15;16.75;;;29.90;99.90;;;;;;4982960;28;20055;-85
2021/07/22 09:18:19;;;;;;;19.95;15.27;;;29.10;99.90;;;;;;4983733;28;20492;-85
2021/07/22 09:20:50;;;;;;;20.52;15.70;;;28.80;99.90;;;;;;4983446;28;20423;-85
2021/07/22 09:23:22;;;;;;;17.90;14.13;;;29.00;99.90;;;;;;4982490;28;20542;-84
2021/07/22 09:25:59;;;;;;;19.25;15.65;;;29.20;99.90;;;;;;4982820;28;20683;-85
2021/07/22 09:28:28;;;;;;;18.42;14.40;;;29.10;99.90;;;;;;4982945;28;20082;-85
2021/07/22 09:30:57;;;;;;;18.38;13.38;;;29.20;99.90;;;;;;4983722;28;20082;-86
2021/07/22 09:33:51;;;;;;;17.50;13.75;;;29.50;99.90;;;;;;4983950;28;20078;-86
2021/07/22 09:36:34;;;;;;;17.30;13.43;;;29.60;99.90;;;;;;4984326;28;20061;-85
2021/07/22 09:39:22;;;;;;;18.10;12.27;;;29.50;99.90;;;;;;4983752;28;20480;-85
2021/07/22 09:42:00;;;;;;;15.02;12.80;;;29.30;99.90;;;;;;4983101;28;20095;-85
2021/07/22 09:44:32;;;;;;;17.20;12.32;;;28.80;99.90;;;;;;4983341;28;20441;-84
2021/07/22 09:47:01;;;;;;;;;;;28.50;99.90;;;;;;4985353;28;20051;-82
2021/07/22 09:49:32;;;;;;;15.68;11.82;;;28.00;99.90;;;;;;4961982;28;20021;-84
2021/07/22 09:52:02;;;;;;;15.63;12.20;;;27.70;99.90;;;;;;4971904;28;20097;-84
2021/07/22 09:54:37;;;;;;;18.65;12.23;;;27.80;99.90;;;;;;4980735;28;20530;-84
2021/07/22 09:57:13;;;;;;;14.85;11.50;;;27.80;99.90;;;;;;4962564;28;20065;-85
2021/07/22 09:59:40;;;;;;;19.27;11.80;;;27.90;99.90;;;;;;4961233;28;20090;-85
2021/07/22 10:02:07;;;;;;;16.85;11.88;;;28.10;99.90;;;;;;4962811;29;20051;-86
2021/07/22 10:04:36;;;;;;;21.08;13.38;;;28.30;99.90;;;;;;4962102;28;20077;-85
2021/07/22 10:07:05;;;;;;;19.52;12.98;;;28.30;99.90;;;;;;4963718;28;20509;-85
2021/07/22 10:09:36;;;;;;;17.25;13.23;;;28.20;99.90;;;;;;4981772;28;20145;-86
2021/07/22 10:12:04;;;;;;;19.63;13.45;;;28.40;99.90;;;;;;4972914;28;20150;-84
2021/07/22 10:14:33;;;;;;;16.95;14.02;;;28.60;99.90;;;;;;4962354;28;20047;-86
2021/07/22 10:17:03;;;;;;;16.92;13.10;;;28.70;99.90;;;;;;4963810;28;20078;-81
2021/07/22 10:19:32;;;;;;;19.75;14.07;;;28.50;99.90;;;;;;4982390;28;20078;-86
2021/07/22 10:22:02;;;;;;;20.08;14.15;;;28.60;99.90;;;;;;4983811;28;20102;-84
2021/07/22 10:24:30;;;;;;;22.35;14.15;;;28.50;99.90;;;;;;4986054;28;20062;-85
2021/07/22 10:26:58;;;;;;;19.60;13.95;;;28.60;99.90;;;;;;4987305;28;20097;-85
2021/07/22 10:29:26;;;;;;;17.27;13.75;;;28.60;99.90;;;;;;4983637;28;20082;-85
2021/07/22 10:31:55;;;;;;;16.98;13.23;;;28.70;99.90;;;;;;4987152;28;20054;-87
2021/07/22 10:34:22;;;;;;;16.13;12.23;;;28.70;99.90;;;;;;4986148;28;20141;-87
2021/07/22 10:36:51;;;;;;;18.17;12.68;;;28.90;99.90;;;;;;4992031;28;20111;-85
2021/07/22 10:39:57;;;;;;;16.90;12.27;;;29.10;99.90;;;;;;4988432;28;20050;-86
2021/07/22 10:42:42;;;;;;;17.05;14.05;;;29.30;99.90;;;;;;4982785;28;20066;-83
2021/07/22 10:45:26;;;;;;;18.05;14.73;;;29.50;99.90;;;;;;4989362;28;20047;-83
2021/07/22 10:48:04;;;;;;;16.95;13.88;;;29.60;99.90;;;;;;4988384;28;20066;-84
2021/07/22 10:51:00;;;;;;;16.65;13.57;;;29.60;99.90;;;;;;4990014;28;20473;-83
2021/07/22 10:53:42;;;;;;;16.83;13.25;;;29.50;99.90;;;;;;4988611;28;20130;-83
2021/07/22 10:56:10;;;;;;;18.13;13.02;;;29.40;99.90;;;;;;4985936;28;20055;-84
2021/07/22 10:58:55;;;;;;;19.75;12.63;;;29.30;99.90;;;;;;4981983;28;20043;-83
2021/07/22 11:01:58;;;;;;;16.50;13.43;;;29.40;99.90;;;;;;4964537;29;20138;-83
2021/07/22 11:04:45;;;;;;;15.32;13.07;;;29.40;99.90;;;;;;4962948;28;20051;-84
2021/07/22 11:07:19;;;;;;;20.15;16.02;;;29.40;99.90;;;;;;4963852;29;20182;-83
2021/07/22 11:09:49;;;;;;;20.23;14.70;;;29.30;99.90;;;;;;4981968;28;20448;-84
2021/07/22 11:12:56;;;;;;;22.55;15.30;;;29.10;99.90;;;;;;4981901;28;20051;-84
2021/07/22 11:16:01;;;;;;;18.95;15.00;;;29.00;99.90;;;;;;4982759;28;20068;-83
2021/07/22 11:18:51;;;;;;;21.65;15.90;;;28.80;99.90;;;;;;4980104;28;20063;-84
2021/07/22 11:21:20;;;;;;;21.60;15.50;;;28.80;99.90;;;;;;4980474;28;20538;-84
2021/07/22 11:24:04;;;;;;;20.27;14.30;;;28.80;99.90;;;;;;4981967;28;20090;-84
2021/07/22 11:26:33;;;;;;;18.67;14.75;;;28.80;99.90;;;;;;4983197;28;20074;-84
2021/07/22 11:29:04;;;;;;;19.92;14.63;;;28.70;99.90;;;;;;4981658;28;20050;-84
2021/07/22 11:31:33;;;;;;;17.63;14.20;;;28.80;99.90;;;;;;4981097;28;20133;-84
2021/07/22 11:34:04;;;;;;;21.23;14.20;;;28.70;99.90;;;;;;4982109;28;20101;-85
2021/07/22 11:36:32;;;;;;;18.48;13.68;;;28.80;99.90;;;;;;4982965;28;20086;-85
2021/07/22 11:39:00;;;;;;;17.33;13.55;;;28.70;99.90;;;;;;4982143;28;20057;-85
2021/07/22 11:41:28;;;;;;;17.17;13.25;;;28.80;99.90;;;;;;4983004;28;20129;-84
2021/07/22 11:43:56;;;;;;;17.83;13.75;;;28.80;99.90;;;;;;4982135;28;20133;-84
2021/07/22 11:46:38;;;;;;;17.08;13.95;;;28.90;99.90;;;;;;4981770;28;20146;-85
2021/07/22 11:49:08;;;;;;;18.55;14.07;;;29.00;99.90;;;;;;4981395;28;20141;-84
2021/07/22 11:51:35;;;;;;;19.13;14.80;;;29.00;99.90;;;;;;4982172;28;20065;-84
2021/07/22 11:54:02;;;;;;;16.88;14.07;;;29.10;99.90;;;;;;4983080;28;20110;-83
2021/07/22 11:56:34;;;;;;;18.88;15.38;;;28.80;99.90;;;;;;4981769;28;20145;-84
2021/07/22 11:59:04;;;;;;;20.00;14.90;;;28.60;99.90;;;;;;4982492;28;20094;-84
2021/07/22 12:01:33;;;;;;;18.08;15.00;;;28.40;99.90;;;;;;4980475;28;20439;-83
2021/07/22 12:04:00;;;;;;;19.30;14.55;;;28.40;99.90;;;;;;4980810;28;20526;-84
2021/07/22 12:06:30;;;;;;;17.75;14.32;;;28.50;99.90;;;;;;4981197;28;20078;-84
2021/07/22 12:09:08;;;;;;;17.92;14.27;;;28.50;99.90;;;;;;4981721;28;20051;-85
2021/07/22 12:11:45;;;;;;;19.40;13.65;;;28.40;99.90;;;;;;4981967;28;20082;-85
2021/07/22 12:14:12;;;;;;;17.27;14.02;;;28.40;99.90;;;;;;5002665;23;20054;-79
2021/07/22 12:16:41;;;;;;;18.40;13.68;;;28.40;99.90;;;;;;4981196;28;20197;-80
2021/07/22 12:19:09;;;;;;;17.75;13.73;;;28.50;99.90;;;;;;4982793;28;20472;-80
2021/07/22 12:21:37;;;;;;;19.40;13.95;;;28.80;99.90;;;;;;4982715;28;20054;-80
2021/07/22 12:24:17;;;;;;;20.42;14.00;;;28.90;99.90;;;;;;4985715;28;20074;-81
2021/07/22 12:26:44;;;;;;;21.63;15.48;;;29.10;99.90;;;;;;4987219;28;20101;-81
2021/07/22 12:29:11;;;;;;;20.70;14.25;;;28.90;99.90;;;;;;4985701;28;20070;-82
2021/07/22 12:31:40;;;;;;;16.88;13.73;;;28.90;99.90;;;;;;4984368;28;20081;-81
2021/07/22 12:34:09;;;;;;;18.25;13.68;;;29.00;99.90;;;;;;4983402;28;20101;-81
2021/07/22 12:36:38;;;;;;;19.10;15.07;;;28.90;99.90;;;;;;4981422;28;20125;-79
2021/07/22 12:39:15;;;;;;;16.40;13.30;;;28.90;99.90;;;;;;4979628;28;20055;-81
2021/07/22 12:41:43;;;;;;;17.73;12.88;;;28.60;99.90;;;;;;4978905;28;20047;-81